Allison, Illinois
Current Conditions -  °F | °C
As of 9:53 AM on Wednesday 28 Jan 2015 (Local Time) from KLWV Reporting Station
Clear Clear  
Wind Chill: 21°   Ceiling: Unl
Heat Index: 31°   Visibility: 8mi
Dew Point: 21°   Wind: 14mph
Humidity: 67%   Direction: 140°SE
Pressure: 30.34"   Gusts: NA
Location:  38.7501°N, 87.6141°W
Report Text: KLWV 281553Z AUTO 14012KT 8SM CLR M01/M06 A3034 RMK AO2 SLP279 T10061061
Loading
Personal Weather Stations






























Interactive Weather Map New forecast layout! Learn more

10-Day Weather Forecast

Advertisements
Track Severe Weather on mobile